Time;durP1;ratioP1;P1;durP2;ratioP2;P2;SDS_P1;SDS_P2;PMS_P1;PMS_P2;Temp;Humidity;BMP_temperature;BMP_pressure;BME280_temperature;BME280_humidity;BME280_pressure;Samples;Min_cycle;Max_cycle;Signal;HPM_P1;HPM_P2
2022/07/03 00:00:17;;;;;;;3.10;1.60;;;;;;;23.34;58.67;100433.00;5092045;28;20171;-62
2022/07/03 00:02:42;;;;;;;3.53;1.73;;;;;;;23.33;58.67;100437.13;5090043;28;20277;-62
2022/07/03 00:05:08;;;;;;;3.07;1.63;;;;;;;23.32;58.31;100432.59;5091583;28;20174;-62
2022/07/03 00:07:33;;;;;;;2.53;1.37;;;;;;;23.34;58.55;100437.97;5090240;28;20565;-62
2022/07/03 00:09:59;;;;;;;6.00;1.60;;;;;;;23.33;58.46;100431.34;5088133;28;20198;-62
2022/07/03 00:12:24;;;;;;;2.43;1.37;;;;;;;23.32;58.40;100432.59;5088571;28;20532;-62
2022/07/03 00:14:50;;;;;;;3.80;1.67;;;;;;;23.31;58.29;100439.59;5089607;28;20158;-62
2022/07/03 00:17:16;;;;;;;2.37;1.50;;;;;;;23.31;58.46;100445.38;5089992;28;20235;-62
2022/07/03 00:19:41;;;;;;;3.47;1.87;;;;;;;23.30;58.27;100440.84;5084907;28;20505;-62
2022/07/03 00:22:09;;;;;;;4.17;1.60;;;;;;;23.29;58.39;100436.28;5074641;28;20181;-62
2022/07/03 00:24:50;;;;;;;3.97;1.70;;;;;;;23.30;58.59;100442.88;5089746;28;20661;-62
2022/07/03 00:27:16;;;;;;;4.03;1.33;;;;;;;23.28;58.29;100446.19;5092326;28;20466;-62
2022/07/03 00:29:43;;;;;;;2.80;1.40;;;;;;;23.29;58.36;100441.25;5091218;28;20828;-62
2022/07/03 00:32:10;;;;;;;5.13;1.77;;;;;;;23.27;58.37;100441.66;5092461;28;20238;-62
2022/07/03 00:34:37;;;;;;;3.87;1.80;;;;;;;23.25;58.43;100446.19;5092531;28;20431;-62
2022/07/03 00:37:02;;;;;;;3.23;1.70;;;;;;;23.25;58.49;100441.25;5091275;28;20420;-62
2022/07/03 00:39:28;;;;;;;2.50;1.77;;;;;;;23.24;58.37;100448.22;5090587;28;20431;-62
2022/07/03 00:42:01;;;;;;;3.23;1.50;;;;;;;23.24;58.42;100450.28;5092471;28;20181;-62
2022/07/03 00:44:27;;;;;;;3.27;1.77;;;;;;;23.21;58.54;100443.28;5090338;28;20189;-62
2022/07/03 00:46:53;;;;;;;3.70;1.47;;;;;;;23.21;58.55;100445.34;5073796;28;20805;-62
2022/07/03 00:49:18;;;;;;;4.53;1.50;;;;;;;23.22;58.53;100439.19;5073710;28;20448;-62
2022/07/03 00:51:44;;;;;;;3.43;1.63;;;;;;;23.22;58.69;100442.06;5092099;28;20228;-62
2022/07/03 00:54:10;;;;;;;4.47;1.70;;;;;;;23.22;58.35;100446.97;5091080;28;20178;-62
2022/07/03 00:56:37;;;;;;;2.70;1.43;;;;;;;23.23;58.34;100432.16;5091690;28;20178;-62
2022/07/03 00:59:02;;;;;;;4.90;1.60;;;;;;;23.24;58.95;100433.81;5074329;28;20428;-62
2022/07/03 01:01:35;;;;;;;2.40;1.40;;;;;;;23.25;58.53;100429.72;5091980;28;20786;-62
2022/07/03 01:04:09;;;;;;;2.90;1.40;;;;;;;23.26;58.57;100431.38;5091885;28;20175;-62
2022/07/03 01:06:38;;;;;;;2.40;1.50;;;;;;;23.27;58.47;100424.38;5091349;28;20572;-62
2022/07/03 01:09:03;;;;;;;4.53;1.97;;;;;;;23.27;58.52;100435.88;5090340;28;20448;-62
2022/07/03 01:11:39;;;;;;;2.10;1.33;;;;;;;23.27;58.43;100435.88;5089052;28;20432;-62
2022/07/03 01:14:17;;;;;;;3.27;1.87;;;;;;;23.28;58.29;100436.72;5083731;28;20186;-62
2022/07/03 01:16:48;;;;;;;6.30;1.90;;;;;;;23.28;58.29;100439.59;5091429;28;20414;-62
2022/07/03 01:19:30;;;;;;;3.00;1.70;;;;;;;23.28;58.37;100445.38;5091920;28;20467;-62
2022/07/03 01:22:04;;;;;;;2.30;1.50;;;;;;;23.27;58.63;100437.94;5091303;28;20416;-62
2022/07/03 01:24:42;;;;;;;2.40;1.30;;;;;;;23.26;58.30;100431.38;5091425;28;20446;-62
2022/07/03 01:27:10;;;;;;;4.97;1.93;;;;;;;23.23;58.31;100432.16;5091357;28;20427;-62
2022/07/03 01:29:41;;;;;;;8.50;1.80;;;;;;;23.22;58.67;100433.41;5076170;28;20944;-62
2022/07/03 01:32:06;;;;;;;3.33;1.60;;;;;;;23.19;58.33;100427.66;5071063;28;20782;-62
2022/07/03 01:34:34;;;;;;;4.57;1.80;;;;;;;23.20;58.43;100430.13;5052709;28;20426;-62
2022/07/03 01:36:59;;;;;;;2.90;1.37;;;;;;;23.20;58.40;100424.38;5089264;28;20194;-62
2022/07/03 01:39:26;;;;;;;3.37;1.70;;;;;;;23.20;58.49;100433.00;5090018;28;20514;-62
2022/07/03 01:41:51;;;;;;;2.57;1.77;;;;;;;23.19;58.65;100431.34;5090843;28;20625;-62
2022/07/03 01:44:17;;;;;;;3.20;1.80;;;;;;;23.18;58.51;100431.78;5073176;28;20437;-62
2022/07/03 01:46:45;;;;;;;4.97;1.83;;;;;;;23.15;58.68;100436.25;5070817;28;20174;-62
2022/07/03 01:49:12;;;;;;;4.00;1.43;;;;;;;23.17;58.22;100433.78;5069470;28;20198;-62
2022/07/03 01:51:38;;;;;;;8.67;1.93;;;;;;;23.17;58.84;100422.25;5069280;28;20493;-62
2022/07/03 01:54:04;;;;;;;3.63;1.63;;;;;;;23.16;58.62;100431.31;5070818;28;20463;-62
2022/07/03 01:56:29;;;;;;;6.33;1.57;;;;;;;23.17;58.72;100430.06;5069909;28;21155;-62
2022/07/03 01:58:54;;;;;;;4.37;1.47;;;;;;;23.16;58.63;100437.06;5077103;28;20474;-62
2022/07/03 02:01:30;;;;;;;3.77;1.90;;;;;;;23.17;58.48;100432.94;5089127;28;20174;-62
2022/07/03 02:04:15;;;;;;;2.60;1.40;;;;;;;23.14;58.73;100434.59;5087414;28;20169;-62
2022/07/03 02:06:44;;;;;;;2.93;1.60;;;;;;;23.14;58.85;100431.72;5088823;28;20456;-62
2022/07/03 02:09:10;;;;;;;6.23;2.00;;;;;;;23.14;58.54;100431.72;5087497;28;20820;-62
2022/07/03 02:11:38;;;;;;;4.20;1.80;;;;;;;23.13;58.52;100430.06;5088992;28;20905;-62
2022/07/03 02:14:16;;;;;;;4.20;1.90;;;;;;;23.15;58.68;100435.44;5090669;28;20907;-62
2022/07/03 02:17:04;;;;;;;6.87;1.87;;;;;;;23.13;58.73;100435.81;5090035;28;20423;-62
2022/07/03 02:19:52;;;;;;;2.30;1.40;;;;;;;23.13;58.66;100441.59;5087881;28;20930;-62
2022/07/03 02:22:33;;;;;;;2.90;1.60;;;;;;;23.09;58.95;100434.19;5076855;28;20431;-62
2022/07/03 02:25:08;;;;;;;2.47;1.57;;;;;;;23.08;59.09;100423.91;5089274;28;20413;-62
2022/07/03 02:27:44;;;;;;;3.60;2.00;;;;;;;23.07;59.10;100431.72;5089029;28;20420;-62
2022/07/03 02:30:10;;;;;;;3.80;1.50;;;;;;;23.09;58.93;100423.47;5089446;28;20447;-62
2022/07/03 02:32:38;;;;;;;3.97;1.53;;;;;;;23.08;58.90;100418.94;5090269;28;20432;-62
2022/07/03 02:35:09;;;;;;;4.17;1.80;;;;;;;23.09;58.53;100429.22;5088066;28;20497;-62
2022/07/03 02:37:58;;;;;;;8.13;1.80;;;;;;;23.11;58.85;100425.94;5070512;28;20470;-62
2022/07/03 02:40:30;;;;;;;3.37;1.77;;;;;;;23.11;58.97;100428.84;5077891;28;20447;-62
2022/07/03 02:43:09;;;;;;;3.10;1.50;;;;;;;23.11;58.78;100426.78;5088872;28;20424;-62
2022/07/03 02:46:01;;;;;;;3.10;1.90;;;;;;;23.11;59.06;100429.66;5089402;28;20416;-62
2022/07/03 02:48:39;;;;;;;3.20;1.90;;;;;;;23.12;58.85;100430.47;5074927;28;20413;-62
2022/07/03 02:51:08;;;;;;;3.20;2.07;;;;;;;23.11;58.68;100432.53;5088930;28;20419;-62
2022/07/03 02:53:46;;;;;;;3.03;1.50;;;;;;;23.11;59.11;100426.78;5072776;28;20907;-62
2022/07/03 02:56:34;;;;;;;2.30;1.40;;;;;;;23.11;59.20;100429.66;5090422;28;20418;-63
2022/07/03 02:59:17;;;;;;;4.33;2.10;;;;;;;23.10;58.85;100436.66;5063122;28;20425;-62
2022/07/03 03:01:47;;;;;;;3.60;2.03;;;;;;;23.10;59.15;100444.47;5070225;28;20520;-62
2022/07/03 03:04:27;;;;;;;3.40;1.80;;;;;;;23.09;58.97;100437.88;5068418;28;20420;-62
2022/07/03 03:07:07;;;;;;;4.80;1.90;;;;;;;23.08;58.79;100441.19;5052657;28;21207;-62
2022/07/03 03:09:39;;;;;;;2.30;1.53;;;;;;;23.10;58.61;100430.91;5068493;28;20460;-62
2022/07/03 03:12:05;;;;;;;3.40;1.67;;;;;;;23.11;59.10;100446.94;5069524;28;20451;-62
2022/07/03 03:14:40;;;;;;;5.07;1.73;;;;;;;23.11;58.95;100449.84;5069552;28;20981;-62
2022/07/03 03:17:06;;;;;;;3.10;1.93;;;;;;;23.11;59.03;100452.72;5065288;28;20174;-62
2022/07/03 03:19:34;;;;;;;2.67;1.50;;;;;;;23.12;58.87;100454.34;5090103;28;20423;-62
2022/07/03 03:22:21;;;;;;;4.67;1.80;;;;;;;23.12;59.30;100454.34;5088902;28;20424;-62
2022/07/03 03:24:46;;;;;;;5.20;1.77;;;;;;;23.13;58.84;100458.88;5090331;28;20450;-62
2022/07/03 03:27:12;;;;;;;2.23;1.50;;;;;;;23.12;58.66;100456.41;5089773;28;20786;-62
2022/07/03 03:29:38;;;;;;;3.43;1.93;;;;;;;23.10;58.76;100456.81;5093135;28;20202;-62
2022/07/03 03:32:04;;;;;;;5.60;1.80;;;;;;;23.10;58.87;100465.47;5094047;28;20170;-62
2022/07/03 03:34:33;;;;;;;5.03;2.17;;;;;;;23.11;58.97;100470.00;5091874;28;20881;-62
2022/07/03 03:36:59;;;;;;;5.57;1.87;;;;;;;23.08;58.68;100467.91;5091907;28;20442;-62
2022/07/03 03:39:24;;;;;;;2.63;1.47;;;;;;;23.08;58.70;100470.78;5093610;28;20807;-62
2022/07/03 03:41:50;;;;;;;4.33;1.67;;;;;;;23.07;58.79;100480.66;5092301;28;20166;-62
2022/07/03 03:44:15;;;;;;;3.53;1.60;;;;;;;23.06;58.73;100484.78;5093466;28;20247;-62
2022/07/03 03:46:40;;;;;;;3.83;2.00;;;;;;;23.06;58.80;100473.28;5093365;28;20621;-62
2022/07/03 03:49:06;;;;;;;2.77;1.40;;;;;;;23.06;58.81;100476.16;5093308;28;20502;-62
2022/07/03 03:51:31;;;;;;;3.50;2.00;;;;;;;23.04;58.67;100484.38;5093469;28;20200;-62
2022/07/03 03:53:57;;;;;;;3.80;1.87;;;;;;;23.03;58.90;100479.84;5092348;28;20629;-62
2022/07/03 03:56:22;;;;;;;2.57;1.60;;;;;;;23.03;58.57;100476.16;5093672;28;20178;-62
2022/07/03 03:58:48;;;;;;;2.43;1.67;;;;;;;22.91;58.96;100480.22;5084348;28;20194;-62
2022/07/03 04:01:13;;;;;;;4.43;1.60;;;;;;;22.89;58.99;100481.84;5073156;28;20175;-62
2022/07/03 04:03:39;;;;;;;3.00;1.83;;;;;;;22.92;59.16;100487.63;5073161;28;20590;-62
2022/07/03 04:06:04;;;;;;;3.47;2.03;;;;;;;22.93;58.85;100489.25;5070016;28;20187;-62
2022/07/03 04:08:30;;;;;;;3.30;1.83;;;;;;;22.93;58.93;100491.34;5076492;28;20271;-62
2022/07/03 04:10:55;;;;;;;3.20;1.80;;;;;;;22.92;58.73;100493.38;5091305;28;20174;-62
2022/07/03 04:13:21;;;;;;;3.70;1.70;;;;;;;22.94;58.72;100498.75;5090368;28;20201;-62
2022/07/03 04:15:51;;;;;;;3.03;1.60;;;;;;;22.93;58.74;100494.22;5092945;28;20922;-62
2022/07/03 04:18:16;;;;;;;3.50;1.50;;;;;;;22.93;59.04;100492.16;5092765;28;20171;-62
2022/07/03 04:20:42;;;;;;;5.43;1.60;;;;;;;22.93;58.90;100495.03;5091341;28;20934;-62
2022/07/03 04:23:08;;;;;;;4.80;1.90;;;;;;;22.93;58.76;100497.09;5088665;28;20184;-62
2022/07/03 04:25:33;;;;;;;3.20;1.93;;;;;;;22.94;58.64;100490.09;5090419;28;20186;-62
2022/07/03 04:27:59;;;;;;;6.13;1.80;;;;;;;22.94;58.86;100495.88;5090192;28;20182;-62
2022/07/03 04:30:24;;;;;;;4.23;1.70;;;;;;;22.94;58.84;100496.69;5070042;28;20555;-62
2022/07/03 04:32:50;;;;;;;3.73;1.80;;;;;;;22.96;58.76;100502.03;5069889;28;20191;-62
2022/07/03 04:35:15;;;;;;;2.63;2.00;;;;;;;22.94;58.74;100496.69;5070948;28;20193;-62
2022/07/03 04:37:41;;;;;;;2.10;1.40;;;;;;;22.92;58.83;100504.91;5072339;28;20170;-62
2022/07/03 04:40:07;;;;;;;6.03;1.60;;;;;;;22.89;58.78;100505.72;5071964;28;20179;-62
2022/07/03 04:42:33;;;;;;;2.40;1.60;;;;;;;22.81;59.09;100504.03;5081737;28;20232;-62
2022/07/03 04:44:59;;;;;;;2.63;1.50;;;;;;;22.90;58.98;100509.41;5091887;28;20428;-62
2022/07/03 04:47:24;;;;;;;3.17;1.37;;;;;;;22.95;59.25;100509.84;5092072;28;20206;-62
2022/07/03 04:49:50;;;;;;;6.23;1.90;;;;;;;22.97;59.16;100516.03;5091304;28;20463;-62
2022/07/03 04:52:17;;;;;;;3.70;1.87;;;;;;;22.98;58.82;100509.03;5092867;28;20163;-62
2022/07/03 04:54:42;;;;;;;2.70;1.63;;;;;;;23.00;58.96;100505.75;5092116;28;20469;-62
2022/07/03 04:57:08;;;;;;;3.70;1.60;;;;;;;23.00;58.89;100518.09;5091964;28;20420;-62
2022/07/03 04:59:33;;;;;;;2.20;1.50;;;;;;;23.00;59.25;100512.34;5078715;28;20634;-62
2022/07/03 05:01:59;;;;;;;2.90;1.60;;;;;;;22.99;58.89;100516.47;5071918;28;20688;-62
2022/07/03 05:04:24;;;;;;;4.57;1.77;;;;;;;22.93;59.18;100518.06;5071265;28;20179;-62
2022/07/03 05:06:50;;;;;;;2.40;1.60;;;;;;;22.94;59.09;100522.63;5071379;28;20524;-62
2022/07/03 05:09:15;;;;;;;3.63;1.87;;;;;;;22.93;59.36;100520.94;5071395;28;20199;-62
2022/07/03 05:11:43;;;;;;;4.47;2.10;;;;;;;22.95;59.20;100515.63;5070701;28;20186;-62
2022/07/03 05:14:09;;;;;;;6.10;2.17;;;;;;;22.90;59.75;100516.00;5077817;28;20641;-62
2022/07/03 05:16:34;;;;;;;2.60;1.57;;;;;;;22.82;59.60;100531.59;5091808;28;20427;-62
2022/07/03 05:19:00;;;;;;;2.50;1.77;;;;;;;22.92;60.09;100519.28;5091483;28;20174;-62
2022/07/03 05:21:25;;;;;;;4.20;2.00;;;;;;;22.90;59.58;100523.81;5091120;28;20229;-62
2022/07/03 05:23:51;;;;;;;5.00;1.83;;;;;;;22.87;59.70;100525.44;5091216;28;20188;-62
2022/07/03 05:26:16;;;;;;;2.53;1.63;;;;;;;22.95;59.55;100524.25;5090682;28;20178;-62
2022/07/03 05:28:42;;;;;;;2.57;1.43;;;;;;;23.02;59.24;100521.38;5086443;28;20236;-62
2022/07/03 05:31:07;;;;;;;2.80;1.77;;;;;;;23.03;59.23;100520.16;5091530;28;20178;-62
2022/07/03 05:33:33;;;;;;;3.30;1.77;;;;;;;23.06;59.13;100513.59;5091464;28;20224;-62
2022/07/03 05:35:58;;;;;;;2.23;1.43;;;;;;;23.08;59.28;100519.75;5091478;28;20183;-62
2022/07/03 05:41:08;;;;;;;3.33;1.73;;;;;;;23.09;59.26;100518.53;5090847;28;20477;-62
2022/07/03 05:43:33;;;;;;;2.17;1.40;;;;;;;23.10;59.33;100510.72;5090856;28;20420;-62
2022/07/03 05:45:59;;;;;;;2.47;1.67;;;;;;;22.91;60.45;100517.66;5090924;28;20175;-62
2022/07/03 05:48:24;;;;;;;2.80;1.50;;;;;;;22.87;60.23;100516.00;5090355;28;20208;-62
2022/07/03 05:50:50;;;;;;;2.43;1.53;;;;;;;22.88;59.97;100511.88;5090557;28;20242;-62
2022/07/03 05:53:15;;;;;;;3.90;1.87;;;;;;;22.81;59.95;100515.56;5091328;28;20182;-62
2022/07/03 05:55:41;;;;;;;4.20;1.90;;;;;;;22.67;60.83;100512.59;5090608;28;20191;-62
2022/07/03 05:58:06;;;;;;;3.17;1.57;;;;;;;22.92;60.01;100518.50;5089923;28;20182;-62
2022/07/03 06:00:31;;;;;;;4.27;1.63;;;;;;;23.02;59.70;100524.28;5070185;28;20756;-62
2022/07/03 06:02:57;;;;;;;2.97;1.70;;;;;;;23.04;59.54;100521.81;5070696;28;20502;-62
2022/07/03 06:05:22;;;;;;;3.97;1.50;;;;;;;22.97;60.20;100526.75;5070638;28;20212;-62
2022/07/03 06:07:49;;;;;;;3.00;1.70;;;;;;;22.97;60.30;100526.75;5070707;28;20219;-62
2022/07/03 06:10:15;;;;;;;5.37;1.73;;;;;;;23.01;60.26;100522.63;5070385;28;20215;-62
2022/07/03 06:12:41;;;;;;;2.53;1.50;;;;;;;22.97;60.12;100530.41;5086145;28;20485;-62
2022/07/03 06:15:07;;;;;;;2.70;1.60;;;;;;;23.05;60.19;100535.00;5089108;28;20425;-62
2022/07/03 06:17:35;;;;;;;3.60;1.87;;;;;;;22.99;60.79;100538.66;5088360;28;20201;-62
2022/07/03 06:20:00;;;;;;;3.90;1.50;;;;;;;23.01;59.90;100545.66;5083740;28;20175;-62
2022/07/03 06:22:26;;;;;;;4.57;1.73;;;;;;;23.02;60.07;100541.53;5076167;28;20428;-62
2022/07/03 06:24:51;;;;;;;4.60;1.60;;;;;;;23.06;59.93;100545.28;5081917;28;20191;-62
2022/07/03 06:27:17;;;;;;;3.67;1.93;;;;;;;23.02;60.25;100541.53;5078668;28;20539;-62
2022/07/03 06:29:42;;;;;;;4.53;1.60;;;;;;;23.02;60.42;100547.31;5076034;28;20206;-62
2022/07/03 06:32:07;;;;;;;3.50;1.80;;;;;;;22.97;60.57;100538.25;5070309;28;20171;-62
2022/07/03 06:34:33;;;;;;;2.90;1.67;;;;;;;22.80;61.49;100544.75;5070094;28;20175;-62
2022/07/03 06:36:58;;;;;;;2.80;1.70;;;;;;;22.72;61.19;100543.88;5068785;28;20171;-62
2022/07/03 06:39:24;;;;;;;3.20;1.90;;;;;;;22.81;61.20;100546.38;5070344;28;20244;-62
2022/07/03 06:41:49;;;;;;;4.07;1.60;;;;;;;22.78;61.16;100553.78;5073552;28;20193;-62
2022/07/03 06:44:15;;;;;;;8.00;1.40;;;;;;;22.83;60.64;100546.81;5090743;28;20230;-62
2022/07/03 06:46:40;;;;;;;6.27;1.73;;;;;;;22.90;61.08;100556.31;5090516;28;20228;-62
2022/07/03 06:49:05;;;;;;;3.57;1.60;;;;;;;22.79;60.88;100549.69;5090692;28;20554;-62
2022/07/03 06:51:33;;;;;;;2.40;1.07;;;;;;;22.82;61.19;100548.88;5089467;28;20178;-62
2022/07/03 06:53:59;;;;;;;3.03;1.43;;;;;;;22.84;61.10;100545.59;5090286;28;20633;-62
2022/07/03 06:56:24;;;;;;;5.80;1.70;;;;;;;22.91;60.89;100542.72;5090432;28;20428;-62
2022/07/03 06:58:50;;;;;;;2.40;1.57;;;;;;;22.94;60.80;100550.56;5090123;28;20183;-62
2022/07/03 07:01:15;;;;;;;2.80;1.27;;;;;;;22.96;60.92;100540.31;5090473;28;20186;-62
2022/07/03 07:03:41;;;;;;;2.83;1.37;;;;;;;22.95;60.90;100540.69;5094446;28;20189;-62
2022/07/03 07:06:06;;;;;;;4.23;1.50;;;;;;;23.04;60.49;100539.09;5094310;28;20205;-62
2022/07/03 07:08:32;;;;;;;5.03;1.90;;;;;;;23.01;60.76;100542.78;5093883;28;20262;-62
2022/07/03 07:10:57;;;;;;;4.33;1.80;;;;;;;22.97;61.05;100539.06;5093641;28;20278;-62
2022/07/03 07:13:22;;;;;;;5.13;1.80;;;;;;;23.10;60.32;100537.47;5092925;28;20532;-62
2022/07/03 07:15:48;;;;;;;2.40;1.43;;;;;;;23.04;60.93;100549.78;5093750;28;20189;-62
2022/07/03 07:18:13;;;;;;;3.90;1.47;;;;;;;23.07;60.72;100555.56;5093986;28;20182;-62
2022/07/03 07:20:39;;;;;;;8.90;1.57;;;;;;;23.10;59.89;100542.41;5086002;28;20190;-62
2022/07/03 07:23:04;;;;;;;2.97;1.67;;;;;;;23.14;60.18;100555.56;5092049;28;20178;-62
2022/07/03 07:25:29;;;;;;;6.70;2.23;;;;;;;23.14;59.96;100544.03;5092711;28;20182;-62
2022/07/03 07:27:55;;;;;;;3.50;1.50;;;;;;;23.13;59.57;100544.47;5091526;28;20189;-62
2022/07/03 07:30:20;;;;;;;2.97;1.80;;;;;;;23.17;59.40;100545.28;5072567;28;20191;-62
2022/07/03 07:32:46;;;;;;;3.23;1.50;;;;;;;23.17;59.19;100545.28;5072609;28;20616;-62
2022/07/03 07:35:11;;;;;;;3.70;1.30;;;;;;;23.15;59.36;100545.72;5072528;28;20189;-62
2022/07/03 07:37:36;;;;;;;6.07;1.70;;;;;;;23.15;59.20;100545.72;5073551;28;20186;-62
2022/07/03 07:40:03;;;;;;;3.20;1.50;;;;;;;23.20;59.12;100539.59;5073437;28;20201;-62
2022/07/03 07:42:28;;;;;;;3.43;1.40;;;;;;;23.21;59.22;100541.25;5082250;28;20213;-62
2022/07/03 07:44:54;;;;;;;2.60;1.30;;;;;;;23.24;58.18;100540.41;5093675;28;20428;-62
2022/07/03 07:47:19;;;;;;;2.53;1.40;;;;;;;23.26;58.69;100540.00;5092638;28;20178;-62
2022/07/03 07:49:45;;;;;;;9.00;1.40;;;;;;;23.24;58.14;100540.41;5093347;28;20267;-62
2022/07/03 07:52:10;;;;;;;3.10;1.63;;;;;;;23.24;58.45;100531.75;5093010;28;20171;-62
2022/07/03 07:54:35;;;;;;;2.90;1.80;;;;;;;23.29;58.60;100539.22;5093667;28;20617;-62
2022/07/03 07:57:01;;;;;;;2.40;1.57;;;;;;;23.33;58.34;100540.84;5092963;28;20185;-62
2022/07/03 07:59:26;;;;;;;3.70;1.53;;;;;;;23.35;57.98;100540.44;5091909;28;20179;-62
2022/07/03 08:07:20;;;;;;;3.30;1.33;;;;;;;23.34;58.57;100536.72;5089569;28;20498;-62
2022/07/03 08:09:45;;;;;;;6.97;1.80;;;;;;;23.37;58.10;100529.31;5089515;28;20472;-62
2022/07/03 08:12:11;;;;;;;5.83;1.90;;;;;;;23.37;58.29;100535.09;5089064;28;20225;-62
2022/07/03 08:14:37;;;;;;;3.63;1.50;;;;;;;23.41;58.21;100531.00;5091001;28;20185;-62
2022/07/03 08:17:03;;;;;;;3.13;1.80;;;;;;;23.40;58.55;100535.13;5090983;28;20566;-62
2022/07/03 08:19:29;;;;;;;10.03;1.80;;;;;;;23.44;58.56;100538.00;5089141;28;20426;-62
2022/07/03 08:21:54;;;;;;;3.13;1.30;;;;;;;23.43;58.05;100539.25;5073111;28;20433;-62
2022/07/03 08:24:20;;;;;;;3.40;1.40;;;;;;;23.43;58.57;100536.38;5090313;28;20536;-62
2022/07/03 08:26:45;;;;;;;2.77;1.63;;;;;;;23.44;58.75;100538.81;5090311;28;20235;-62
2022/07/03 08:29:11;;;;;;;7.00;1.83;;;;;;;23.46;58.48;100544.16;5090492;28;20681;-62
2022/07/03 08:31:36;;;;;;;2.70;1.53;;;;;;;23.49;58.37;100538.41;5091135;28;20676;-62
2022/07/03 08:34:01;;;;;;;2.80;1.70;;;;;;;23.53;58.25;100541.31;5091294;28;20541;-62
2022/07/03 08:36:27;;;;;;;2.73;1.77;;;;;;;23.53;58.39;100533.47;5091156;28;20570;-62
2022/07/03 08:38:52;;;;;;;4.50;1.87;;;;;;;23.52;58.45;100533.88;5090794;28;20158;-62
2022/07/03 08:41:18;;;;;;;5.00;1.27;;;;;;;23.55;58.33;100528.16;5090635;28;20243;-62
2022/07/03 08:43:43;;;;;;;3.53;1.33;;;;;;;23.60;58.40;100532.69;5090537;28;20177;-62
2022/07/03 08:46:10;;;;;;;2.93;1.70;;;;;;;23.66;56.85;100528.16;5089183;28;20700;-62
2022/07/03 08:48:35;;;;;;;3.33;1.63;;;;;;;23.66;57.37;100526.09;5090985;28;20316;-62
2022/07/03 08:51:00;;;;;;;2.77;1.23;;;;;;;23.63;57.08;100531.88;5089604;28;20454;-62
2022/07/03 08:53:26;;;;;;;4.50;1.57;;;;;;;23.59;56.99;100526.06;5090720;28;20235;-62
2022/07/03 08:55:51;;;;;;;2.83;1.40;;;;;;;23.61;56.69;100526.50;5090647;28;20170;-62
2022/07/03 08:58:19;;;;;;;2.50;1.57;;;;;;;23.59;57.18;100528.16;5086033;28;20186;-62
2022/07/03 09:00:44;;;;;;;4.63;1.70;;;;;;;23.61;56.71;100522.78;5069725;28;20179;-62
2022/07/03 09:03:10;;;;;;;2.70;1.10;;;;;;;23.65;55.96;100523.63;5071857;28;20409;-62
2022/07/03 09:05:36;;;;;;;4.70;1.30;;;;;;;23.67;55.66;100526.91;5083537;28;20584;-62
2022/07/03 09:08:02;;;;;;;2.53;1.20;;;;;;;23.71;53.87;100527.75;5091054;28;20448;-62
2022/07/03 09:10:27;;;;;;;2.10;1.20;;;;;;;23.80;53.40;100526.13;5090222;28;20238;-62
2022/07/03 09:12:52;;;;;;;2.30;1.30;;;;;;;23.73;53.66;100537.63;5089418;28;20186;-62
2022/07/03 09:15:18;;;;;;;3.17;1.50;;;;;;;23.89;51.39;100535.19;5090023;28;20170;-62
2022/07/03 09:18:04;;;;;;;2.30;1.00;;;;;;;23.77;52.65;100523.22;5089860;28;20712;-62
2022/07/03 09:20:37;;;;;;;2.47;1.23;;;;;;;23.74;52.77;100524.84;5081068;28;20207;-62
2022/07/03 09:23:13;;;;;;;3.13;1.27;;;;;;;23.79;52.43;100523.63;5089097;28;20423;-62
2022/07/03 09:25:57;;;;;;;3.00;1.30;;;;;;;23.77;52.27;100526.94;5090878;28;20418;-62
2022/07/03 09:28:55;;;;;;;3.53;1.40;;;;;;;23.80;52.27;100513.75;5091598;28;20843;-62
2022/07/03 09:31:25;;;;;;;4.63;1.20;;;;;;;23.90;51.95;100521.59;5078656;28;20489;-62
2022/07/03 09:33:54;;;;;;;3.00;1.00;;;;;;;23.88;51.86;100516.22;5091054;28;20922;-62
2022/07/03 09:36:39;;;;;;;3.47;1.10;;;;;;;23.84;51.60;100515.38;5088567;28;20428;-62
2022/07/03 09:39:13;;;;;;;3.23;1.30;;;;;;;23.83;51.64;100513.75;5088549;28;20405;-62
2022/07/03 09:42:11;;;;;;;4.47;1.30;;;;;;;23.89;51.29;100517.88;5089767;28;20503;-62
2022/07/03 09:44:46;;;;;;;2.57;1.30;;;;;;;23.85;51.59;100514.16;5089650;28;21247;-62
2022/07/03 09:47:15;;;;;;;5.57;1.20;;;;;;;23.88;51.26;100515.41;5090094;28;20423;-62
2022/07/03 09:49:54;;;;;;;2.07;1.40;;;;;;;23.85;51.38;100511.28;5089908;28;20460;-62
2022/07/03 09:52:39;;;;;;;2.13;1.13;;;;;;;23.86;50.95;100515.81;5090011;28;20417;-62
2022/07/03 09:55:10;;;;;;;2.03;1.17;;;;;;;23.94;50.60;100514.59;5087925;28;20404;-62
2022/07/03 09:57:40;;;;;;;4.60;1.40;;;;;;;23.93;49.96;100507.19;5088939;28;20473;-62
2022/07/03 10:00:24;;;;;;;2.57;0.90;;;;;;;23.97;50.56;100508.00;5072075;28;20421;-62
2022/07/03 10:03:12;;;;;;;4.10;1.43;;;;;;;23.97;50.40;100507.16;5091022;28;20488;-62
2022/07/03 10:05:37;;;;;;;3.13;1.30;;;;;;;23.97;50.17;100495.63;5090362;28;20558;-62
2022/07/03 10:08:07;;;;;;;5.73;0.80;;;;;;;23.95;49.92;100509.66;5090841;28;20937;-62
2022/07/03 10:10:44;;;;;;;3.10;1.33;;;;;;;23.96;49.71;100503.47;5090793;28;20202;-62
2022/07/03 10:13:09;;;;;;;5.03;1.30;;;;;;;24.04;48.64;100502.22;5089238;28;20431;-62
2022/07/03 10:15:38;;;;;;;2.97;1.07;;;;;;;24.09;47.72;100501.78;5089113;28;20827;-62
2022/07/03 10:18:06;;;;;;;2.17;0.83;;;;;;;24.00;48.32;100510.06;5090528;28;20178;-62
2022/07/03 10:20:47;;;;;;;6.33;0.90;;;;;;;23.97;48.23;100501.41;5078505;28;20522;-62
2022/07/03 10:23:14;;;;;;;3.93;1.00;;;;;;;24.05;47.97;100505.94;5068797;28;20424;-62
2022/07/03 10:25:40;;;;;;;4.03;1.17;;;;;;;24.10;48.92;100499.75;5069428;28;20453;-62
2022/07/03 10:28:06;;;;;;;1.80;1.00;;;;;;;24.19;47.65;100489.41;5087283;28;20443;-62
2022/07/03 10:30:31;;;;;;;2.50;0.93;;;;;;;24.09;48.08;100489.44;5068629;28;20460;-62
2022/07/03 10:32:57;;;;;;;2.87;1.13;;;;;;;24.18;48.11;100486.97;5067528;28;20179;-62
2022/07/03 10:35:28;;;;;;;3.87;1.07;;;;;;;24.23;47.69;100486.56;5069349;28;20179;-62
2022/07/03 10:38:02;;;;;;;2.27;1.10;;;;;;;24.12;47.86;100489.44;5072369;28;20175;-62
2022/07/03 10:46:22;;;;;;;2.87;1.07;;;;;;;24.18;48.09;100479.13;5092053;28;20874;-62
2022/07/03 10:48:57;;;;;;;2.20;0.77;;;;;;;24.17;48.49;100483.25;5092913;28;20420;-62
2022/07/03 10:51:22;;;;;;;5.27;1.10;;;;;;;24.29;47.78;100485.69;5093044;28;20960;-62
2022/07/03 10:53:48;;;;;;;3.10;1.30;;;;;;;24.25;47.78;100475.41;5093727;28;20759;-62
2022/07/03 10:56:16;;;;;;;3.40;1.10;;;;;;;24.22;48.06;100474.16;5076511;28;20227;-62
2022/07/03 10:58:55;;;;;;;4.60;1.10;;;;;;;24.22;48.06;100467.56;5093399;28;20190;-62
2022/07/03 11:01:28;;;;;;;2.57;1.00;;;;;;;24.28;48.58;100477.47;5094739;28;20935;-62
2022/07/03 11:03:57;;;;;;;2.73;1.00;;;;;;;24.21;48.43;100466.75;5094432;28;20511;-62
2022/07/03 11:06:44;;;;;;;3.10;1.07;;;;;;;24.20;48.96;100464.28;5093899;28;20436;-62
2022/07/03 11:09:13;;;;;;;3.20;0.90;;;;;;;24.34;48.85;100459.28;5093476;28;20552;-62
2022/07/03 11:11:57;;;;;;;3.90;1.10;;;;;;;24.37;49.27;100460.53;5092312;28;20416;-63
2022/07/03 11:14:26;;;;;;;2.10;0.70;;;;;;;24.36;49.13;100459.72;5093433;28;20483;-62
2022/07/03 11:17:20;;;;;;;2.03;1.00;;;;;;;24.32;48.74;100452.28;5094098;28;20416;-62
2022/07/03 11:22:52;;;;;;;2.07;1.23;;;;;;;24.35;49.26;100460.97;5074129;28;20401;-62
2022/07/03 11:25:18;;;;;;;4.03;1.27;;;;;;;24.34;49.14;100462.19;5073455;28;20421;-62
2022/07/03 11:27:44;;;;;;;3.40;1.00;;;;;;;24.46;48.54;100455.13;5086593;28;20416;-62
2022/07/03 11:30:12;;;;;;;4.30;0.90;;;;;;;24.39;49.23;100455.97;5074994;28;20469;-62
2022/07/03 11:32:57;;;;;;;2.50;1.10;;;;;;;24.36;48.26;100450.22;5079789;28;20178;-62
2022/07/03 11:35:48;;;;;;;5.37;1.10;;;;;;;24.40;48.91;100451.88;5093500;28;20415;-62
2022/07/03 11:38:24;;;;;;;3.57;1.43;;;;;;;24.48;49.29;100441.94;5093733;28;20401;-62
2022/07/03 11:40:51;;;;;;;1.90;0.97;;;;;;;24.70;47.14;100437.75;5093910;28;20508;-62
2022/07/03 11:43:16;;;;;;;2.10;1.03;;;;;;;24.49;48.34;100432.03;5093550;28;20446;-62
2022/07/03 11:45:42;;;;;;;2.37;0.80;;;;;;;24.52;48.48;100436.97;5093570;28;20393;-62
2022/07/03 11:48:33;;;;;;;2.07;0.90;;;;;;;24.48;48.42;100433.28;5092407;28;20688;-62